Time;durP1;ratioP1;P1;durP2;ratioP2;P2;SDS_P1;SDS_P2;PMS_P1;PMS_P2;Temp;Humidity;BMP_temperature;BMP_pressure;BME280_temperature;BME280_humidity;BME280_pressure;Samples;Min_cycle;Max_cycle;Signal;HPM_P1;HPM_P2
2021/05/30 00:00:50;;;;;;;15.43;9.00;;;11.00;99.90;;;;;;5113598;28;20044;-58
2021/05/30 00:03:17;;;;;;;27.05;9.95;;;11.00;99.90;;;;;;5113428;28;20044;-59
2021/05/30 00:05:44;;;;;;;19.90;8.13;;;11.10;99.90;;;;;;5113304;28;20481;-59
2021/05/30 00:08:11;;;;;;;19.38;7.70;;;11.10;99.90;;;;;;5113532;28;20086;-60
2021/05/30 00:10:37;;;;;;;16.05;8.05;;;11.10;99.90;;;;;;5113551;28;20071;-59
2021/05/30 00:13:03;;;;;;;19.05;7.85;;;11.00;99.90;;;;;;5113581;28;20071;-58
2021/05/30 00:15:29;;;;;;;19.23;8.05;;;11.00;99.90;;;;;;5113209;28;20039;-59
2021/05/30 00:17:56;;;;;;;18.63;7.78;;;11.00;99.90;;;;;;5113324;28;20047;-59
2021/05/30 00:20:21;;;;;;;16.73;7.55;;;11.10;99.90;;;;;;5113135;28;20117;-59
2021/05/30 00:22:47;;;;;;;21.38;7.97;;;11.10;99.90;;;;;;5113458;28;20568;-59
2021/05/30 00:25:13;;;;;;;21.48;8.10;;;11.10;99.90;;;;;;5113105;28;20048;-59
2021/05/30 00:27:39;;;;;;;15.55;7.55;;;11.20;99.90;;;;;;5113006;28;20074;-59
2021/05/30 00:30:05;;;;;;;18.50;8.68;;;11.20;99.90;;;;;;5111502;28;20082;-59
2021/05/30 00:32:32;;;;;;;16.20;8.60;;;11.20;99.90;;;;;;5112780;28;20040;-59
2021/05/30 00:34:58;;;;;;;19.13;9.05;;;11.30;99.90;;;;;;5112734;28;20036;-59
2021/05/30 00:37:24;;;;;;;21.75;9.82;;;11.20;99.90;;;;;;5111798;28;20096;-59
2021/05/30 00:39:49;;;;;;;17.17;8.77;;;11.20;99.90;;;;;;5113016;28;20043;-59
2021/05/30 00:42:15;;;;;;;18.67;8.98;;;11.10;99.90;;;;;;5112779;28;20100;-59
2021/05/30 00:44:41;;;;;;;17.92;8.98;;;11.00;99.90;;;;;;5112446;28;20485;-59
2021/05/30 00:47:08;;;;;;;17.60;9.65;;;11.00;99.90;;;;;;5112682;28;20048;-59
2021/05/30 00:49:33;;;;;;;16.20;8.48;;;11.00;99.90;;;;;;5112124;28;20385;-59
2021/05/30 00:51:59;;;;;;;17.23;8.18;;;10.90;99.90;;;;;;5112637;28;20043;-59
2021/05/30 00:54:26;;;;;;;18.67;9.50;;;10.90;99.90;;;;;;5112512;28;20552;-59
2021/05/30 00:56:52;;;;;;;17.30;9.27;;;11.00;99.90;;;;;;5112557;28;20040;-58
2021/05/30 00:59:18;;;;;;;18.60;10.60;;;11.00;99.90;;;;;;5112729;28;20473;-59
2021/05/30 01:01:44;;;;;;;19.73;8.93;;;11.00;99.90;;;;;;5112316;28;20058;-58
2021/05/30 01:04:11;;;;;;;16.50;9.52;;;11.00;99.90;;;;;;5112332;28;20047;-59
2021/05/30 01:06:38;;;;;;;20.30;9.63;;;11.00;99.90;;;;;;5112430;28;20036;-59
2021/05/30 01:09:04;;;;;;;20.48;9.43;;;10.90;99.90;;;;;;5112324;28;20469;-59
2021/05/30 01:11:31;;;;;;;18.20;10.57;;;10.90;99.90;;;;;;5112486;28;20051;-60
2021/05/30 01:13:58;;;;;;;21.45;9.45;;;10.90;99.90;;;;;;5112301;28;20038;-59
2021/05/30 01:16:25;;;;;;;19.98;10.23;;;10.90;99.90;;;;;;5112366;28;20039;-58
2021/05/30 01:18:53;;;;;;;18.13;10.02;;;10.90;99.90;;;;;;5112153;28;20036;-58
2021/05/30 01:21:20;;;;;;;19.05;10.55;;;11.00;99.90;;;;;;5112312;28;20130;-58
2021/05/30 01:23:50;;;;;;;22.77;10.90;;;10.90;99.90;;;;;;5112278;28;20043;-59
2021/05/30 01:26:16;;;;;;;27.92;13.65;;;11.00;99.90;;;;;;5112263;28;20075;-59
2021/05/30 01:28:42;;;;;;;19.15;10.63;;;11.00;99.90;;;;;;5112094;28;20078;-59
2021/05/30 01:31:07;;;;;;;23.90;12.63;;;11.00;99.90;;;;;;5111993;28;20043;-58
2021/05/30 01:33:33;;;;;;;23.00;10.98;;;11.10;99.90;;;;;;5112066;28;20040;-59
2021/05/30 01:35:59;;;;;;;20.70;10.88;;;11.10;99.90;;;;;;5112217;28;20036;-59
2021/05/30 01:38:24;;;;;;;19.77;11.40;;;11.00;99.90;;;;;;5112411;28;20051;-59
2021/05/30 01:40:50;;;;;;;16.75;9.60;;;11.00;99.90;;;;;;5112081;28;20048;-59
2021/05/30 01:43:16;;;;;;;21.10;9.93;;;10.90;99.90;;;;;;5112005;28;20052;-59
2021/05/30 01:45:42;;;;;;;17.00;9.88;;;10.90;99.90;;;;;;5111781;28;20044;-58
2021/05/30 01:48:08;;;;;;;26.20;10.70;;;10.90;99.90;;;;;;5112357;28;20504;-59
2021/05/30 01:50:35;;;;;;;17.42;9.95;;;10.90;99.90;;;;;;5111843;28;20040;-58
2021/05/30 01:53:09;;;;;;;15.93;10.02;;;10.90;99.90;;;;;;5111991;28;20042;-58
2021/05/30 01:55:52;;;;;;;17.45;8.77;;;10.90;99.90;;;;;;5111832;28;20039;-59
2021/05/30 01:58:19;;;;;;;14.82;9.32;;;10.90;99.90;;;;;;5112038;28;20089;-59
2021/05/30 02:00:46;;;;;;;17.60;10.00;;;10.90;99.90;;;;;;5111764;28;20044;-58
2021/05/30 02:03:13;;;;;;;17.30;9.15;;;10.80;99.90;;;;;;5114601;28;20054;-59
2021/05/30 02:05:44;;;;;;;15.02;9.13;;;10.90;99.90;;;;;;5115883;28;20040;-59
2021/05/30 02:08:11;;;;;;;23.30;11.43;;;10.90;99.90;;;;;;5115985;28;20047;-58
2021/05/30 02:10:37;;;;;;;18.08;9.25;;;10.90;99.90;;;;;;5116084;28;20044;-59
2021/05/30 02:13:05;;;;;;;20.95;8.73;;;10.90;99.90;;;;;;5115806;28;20050;-59
2021/05/30 02:15:32;;;;;;;18.10;9.53;;;10.90;99.90;;;;;;5115600;28;20497;-58
2021/05/30 02:17:58;;;;;;;21.50;10.75;;;10.90;99.90;;;;;;5115930;28;20051;-58
2021/05/30 02:20:39;;;;;;;18.27;10.23;;;10.80;99.90;;;;;;5115839;28;20496;-59
2021/05/30 02:23:08;;;;;;;14.75;9.25;;;10.90;99.90;;;;;;5115689;28;20074;-58
2021/05/30 02:25:34;;;;;;;23.13;8.68;;;10.90;99.90;;;;;;5115467;28;20137;-59
2021/05/30 02:28:00;;;;;;;23.38;10.15;;;10.90;99.90;;;;;;5115491;28;20143;-59
2021/05/30 02:30:26;;;;;;;23.88;9.98;;;10.90;99.90;;;;;;5115468;28;20044;-58
2021/05/30 02:32:52;;;;;;;22.35;9.57;;;10.90;99.90;;;;;;5115569;28;20067;-58
2021/05/30 02:35:18;;;;;;;22.58;10.65;;;10.90;99.90;;;;;;5115326;28;20082;-59
2021/05/30 02:37:45;;;;;;;17.55;9.65;;;10.90;99.90;;;;;;5115133;28;20130;-59
2021/05/30 02:40:12;;;;;;;18.20;9.68;;;10.90;99.90;;;;;;5115010;27;20040;-59
2021/05/30 02:42:37;;;;;;;18.73;9.65;;;10.90;99.90;;;;;;5115076;28;20042;-58
2021/05/30 02:45:06;;;;;;;17.48;9.95;;;10.90;99.90;;;;;;5114854;28;20130;-58
2021/05/30 02:47:31;;;;;;;17.08;8.80;;;10.90;99.90;;;;;;5115196;28;20039;-58
2021/05/30 02:49:59;;;;;;;17.95;9.73;;;10.90;99.90;;;;;;5114907;28;20043;-58
2021/05/30 02:52:24;;;;;;;17.42;9.85;;;10.90;99.90;;;;;;5114792;28;20054;-59
2021/05/30 02:54:50;;;;;;;23.13;9.32;;;10.80;99.90;;;;;;5115075;28;20044;-58
2021/05/30 02:57:16;;;;;;;19.10;9.38;;;10.80;99.90;;;;;;5114984;28;20043;-58
2021/05/30 02:59:42;;;;;;;17.83;9.13;;;10.80;99.90;;;;;;5114663;28;20046;-59
2021/05/30 03:02:08;;;;;;;21.45;9.18;;;10.80;99.90;;;;;;5114775;28;20039;-59
2021/05/30 03:04:34;;;;;;;17.10;8.45;;;10.70;99.90;;;;;;5114758;28;20043;-58
2021/05/30 03:07:00;;;;;;;19.30;8.38;;;10.70;99.90;;;;;;5114570;28;20039;-59
2021/05/30 03:09:26;;;;;;;17.08;8.30;;;10.80;99.90;;;;;;5114460;28;20065;-58
2021/05/30 03:11:52;;;;;;;23.08;8.80;;;10.80;99.90;;;;;;5114645;28;20044;-58
2021/05/30 03:14:18;;;;;;;17.67;7.65;;;10.90;99.90;;;;;;5114433;28;20044;-59
2021/05/30 03:16:44;;;;;;;15.48;8.05;;;10.90;99.90;;;;;;5114583;28;20039;-58
2021/05/30 03:19:09;;;;;;;21.63;8.80;;;10.80;99.90;;;;;;5114455;28;20076;-58
2021/05/30 03:21:35;;;;;;;15.15;8.50;;;10.80;99.90;;;;;;5114185;28;20035;-59
2021/05/30 03:24:03;;;;;;;16.25;8.55;;;10.80;99.90;;;;;;5114499;28;20039;-58
2021/05/30 03:26:29;;;;;;;19.15;9.25;;;10.70;99.90;;;;;;5114250;28;20047;-59
2021/05/30 03:28:54;;;;;;;21.70;9.18;;;10.80;99.90;;;;;;5114311;28;20059;-59
2021/05/30 03:31:20;;;;;;;19.13;9.10;;;10.80;99.90;;;;;;5114036;28;20047;-58
2021/05/30 03:33:46;;;;;;;20.60;9.27;;;10.80;99.90;;;;;;5114077;28;20036;-58
2021/05/30 03:36:19;;;;;;;20.33;9.10;;;10.80;99.90;;;;;;5112791;28;20047;-59
2021/05/30 03:38:45;;;;;;;24.90;9.50;;;10.70;99.90;;;;;;5113875;28;20404;-58
2021/05/30 03:41:13;;;;;;;18.17;8.82;;;10.70;99.90;;;;;;5113908;28;20043;-58
2021/05/30 03:43:41;;;;;;;20.00;7.97;;;10.70;99.90;;;;;;5113670;28;20052;-59
2021/05/30 03:46:07;;;;;;;18.35;8.95;;;10.80;99.90;;;;;;5113853;28;20468;-58
2021/05/30 03:48:33;;;;;;;20.92;9.30;;;10.80;99.90;;;;;;5114077;28;20044;-58
2021/05/30 03:51:00;;;;;;;20.13;8.98;;;10.90;99.90;;;;;;5113611;28;20400;-58
2021/05/30 03:53:26;;;;;;;19.95;9.32;;;10.80;99.90;;;;;;5113830;28;20058;-59
2021/05/30 03:55:52;;;;;;;21.45;8.25;;;10.80;99.90;;;;;;5113504;28;20043;-58
2021/05/30 03:58:19;;;;;;;22.23;8.50;;;10.90;99.90;;;;;;5113533;28;20071;-58
2021/05/30 04:00:45;;;;;;;18.08;8.50;;;10.90;99.90;;;;;;5113457;28;20047;-58
2021/05/30 04:03:11;;;;;;;18.45;8.50;;;10.90;99.90;;;;;;5113828;28;20051;-59
2021/05/30 04:05:37;;;;;;;19.50;8.70;;;10.90;99.90;;;;;;5113440;28;20040;-58
2021/05/30 04:08:04;;;;;;;16.55;7.80;;;10.90;99.90;;;;;;5113587;28;20044;-58
2021/05/30 04:10:29;;;;;;;30.42;9.68;;;10.90;99.90;;;;;;5113207;28;20086;-58
2021/05/30 04:12:55;;;;;;;18.55;9.13;;;11.00;99.90;;;;;;5113469;28;20067;-58
2021/05/30 04:15:21;;;;;;;26.08;8.30;;;11.00;99.90;;;;;;5113238;28;20058;-59
2021/05/30 04:17:53;;;;;;;19.60;8.82;;;11.10;99.90;;;;;;5113102;28;20039;-58
2021/05/30 04:20:21;;;;;;;21.05;8.85;;;11.10;99.90;;;;;;5113165;28;20047;-58
2021/05/30 04:22:47;;;;;;;17.50;8.23;;;11.10;99.90;;;;;;5113410;28;20044;-59
2021/05/30 04:25:13;;;;;;;18.95;7.78;;;11.10;99.90;;;;;;5111353;28;20051;-59
2021/05/30 04:27:39;;;;;;;20.70;8.68;;;11.20;99.90;;;;;;5113104;28;20055;-58
2021/05/30 04:30:10;;;;;;;21.35;8.65;;;11.20;99.90;;;;;;5112809;28;20493;-58
2021/05/30 04:32:36;;;;;;;17.98;8.63;;;11.20;99.90;;;;;;5112879;28;20040;-58
2021/05/30 04:35:04;;;;;;;20.38;9.65;;;11.20;99.90;;;;;;5113146;28;20150;-59
2021/05/30 04:37:30;;;;;;;19.20;8.68;;;11.20;99.90;;;;;;5112839;28;20039;-59
2021/05/30 04:39:55;;;;;;;20.23;8.95;;;11.30;99.90;;;;;;5113001;28;20039;-58
2021/05/30 04:42:21;;;;;;;18.83;8.75;;;11.30;99.90;;;;;;5112822;28;20128;-59
2021/05/30 04:44:47;;;;;;;23.83;8.73;;;11.30;99.90;;;;;;5112560;28;20108;-59
2021/05/30 04:47:13;;;;;;;17.02;9.07;;;11.30;99.90;;;;;;5112666;28;20477;-58
2021/05/30 04:49:40;;;;;;;23.30;8.23;;;11.30;99.90;;;;;;5111254;28;20493;-59
2021/05/30 04:52:08;;;;;;;17.02;8.80;;;11.30;99.90;;;;;;5112685;28;20127;-58
2021/05/30 04:54:34;;;;;;;18.52;9.35;;;11.30;99.90;;;;;;5112533;28;20516;-58
2021/05/30 04:56:59;;;;;;;21.13;8.65;;;11.40;99.90;;;;;;5112486;28;20035;-58
2021/05/30 04:59:27;;;;;;;21.30;9.65;;;11.30;99.90;;;;;;5112546;28;20039;-58
2021/05/30 05:01:52;;;;;;;15.38;8.23;;;11.40;99.90;;;;;;5112455;28;20467;-58
2021/05/30 05:04:18;;;;;;;20.67;8.18;;;11.30;99.90;;;;;;5112436;28;20546;-58
2021/05/30 05:06:46;;;;;;;21.95;8.88;;;11.40;99.90;;;;;;5112470;28;20052;-59
2021/05/30 05:09:11;;;;;;;19.55;9.18;;;11.30;99.90;;;;;;5112398;28;20374;-58
2021/05/30 05:11:37;;;;;;;20.85;9.85;;;11.40;99.90;;;;;;5112258;28;20035;-59
2021/05/30 05:14:03;;;;;;;17.80;10.23;;;11.30;99.90;;;;;;5112282;28;20067;-58
2021/05/30 05:16:30;;;;;;;21.30;10.23;;;11.30;99.90;;;;;;5112475;28;20040;-59
2021/05/30 05:18:56;;;;;;;18.90;10.30;;;11.40;99.90;;;;;;5112394;28;20079;-59
2021/05/30 05:21:21;;;;;;;25.73;11.20;;;11.50;99.90;;;;;;5112547;28;20047;-59
2021/05/30 05:23:47;;;;;;;18.52;9.68;;;11.40;99.90;;;;;;5112270;28;20042;-58
2021/05/30 05:26:13;;;;;;;19.48;10.85;;;11.60;99.90;;;;;;5112284;28;20432;-59
2021/05/30 05:28:39;;;;;;;21.30;11.02;;;11.60;99.90;;;;;;5112057;28;20039;-58
2021/05/30 05:31:04;;;;;;;23.70;10.90;;;11.70;99.90;;;;;;5112033;28;20168;-59
2021/05/30 05:33:30;;;;;;;22.13;11.68;;;11.70;99.90;;;;;;5111975;28;20092;-59
2021/05/30 05:35:56;;;;;;;24.58;11.80;;;11.80;99.90;;;;;;5112842;28;20048;-58
2021/05/30 05:38:22;;;;;;;19.33;10.40;;;11.80;99.90;;;;;;5116267;28;20042;-59
2021/05/30 05:40:48;;;;;;;24.35;10.50;;;11.90;99.90;;;;;;5116386;28;20096;-59
2021/05/30 05:43:14;;;;;;;26.00;11.25;;;12.00;99.90;;;;;;5115982;28;20470;-58
2021/05/30 05:45:40;;;;;;;18.55;9.82;;;12.00;99.90;;;;;;5116400;28;20047;-59
2021/05/30 05:48:14;;;;;;;15.25;9.98;;;12.00;99.90;;;;;;5116331;28;20101;-59
2021/05/30 05:50:40;;;;;;;21.23;10.95;;;12.20;99.90;;;;;;5116130;28;20043;-59
2021/05/30 05:53:07;;;;;;;21.13;10.85;;;12.10;99.90;;;;;;5116067;28;20039;-58
2021/05/30 05:55:34;;;;;;;18.02;10.15;;;12.10;99.90;;;;;;5115976;28;20117;-58
2021/05/30 05:58:00;;;;;;;15.20;10.60;;;12.20;99.90;;;;;;5115953;28;20130;-58
2021/05/30 06:00:26;;;;;;;19.58;9.40;;;12.20;99.90;;;;;;5116051;28;20043;-60
2021/05/30 06:02:52;;;;;;;15.48;9.35;;;12.30;99.90;;;;;;5115929;28;20119;-59
2021/05/30 06:05:20;;;;;;;16.67;9.38;;;12.40;99.90;;;;;;5115659;28;20523;-59
2021/05/30 06:07:51;;;;;;;20.05;10.90;;;12.50;99.90;;;;;;5115667;28;20389;-58
2021/05/30 06:10:23;;;;;;;25.27;10.27;;;12.60;99.90;;;;;;5115602;28;20092;-58
2021/05/30 06:12:50;;;;;;;18.15;10.05;;;12.70;99.90;;;;;;5115945;28;20048;-59
2021/05/30 06:15:19;;;;;;;22.30;12.27;;;12.90;99.90;;;;;;5115895;28;20047;-59
2021/05/30 06:17:50;;;;;;;;;;;13.10;99.90;;;;;;5116380;28;20040;-59
2021/05/30 06:20:16;;;;;;;23.02;11.60;;;13.30;99.90;;;;;;5115495;28;19916;-59
2021/05/30 06:22:42;;;;;;;24.20;12.15;;;13.30;99.90;;;;;;5115343;28;20545;-59
2021/05/30 06:25:08;;;;;;;20.67;12.35;;;13.40;99.90;;;;;;5115405;28;20047;-58
2021/05/30 06:27:34;;;;;;;17.67;12.20;;;13.50;99.90;;;;;;5115398;28;20458;-58
2021/05/30 06:29:59;;;;;;;21.52;11.80;;;13.40;99.90;;;;;;5115377;28;20075;-59
2021/05/30 06:32:25;;;;;;;20.15;11.98;;;13.60;99.90;;;;;;5115482;28;20101;-59
2021/05/30 06:34:51;;;;;;;21.67;12.57;;;13.60;99.90;;;;;;5115500;28;20526;-59
2021/05/30 06:37:16;;;;;;;25.80;12.98;;;13.70;99.90;;;;;;5115294;28;20408;-58
2021/05/30 06:39:43;;;;;;;22.95;13.55;;;13.90;99.90;;;;;;5115196;28;20043;-59
2021/05/30 06:42:09;;;;;;;19.23;11.55;;;14.10;99.90;;;;;;5115103;28;20035;-59
2021/05/30 06:44:35;;;;;;;19.10;12.07;;;13.90;99.90;;;;;;5114792;28;20054;-59
2021/05/30 06:47:01;;;;;;;17.30;11.93;;;13.90;99.90;;;;;;5115066;28;20043;-59
2021/05/30 06:49:26;;;;;;;21.17;11.93;;;14.00;99.90;;;;;;5114031;28;20043;-59
2021/05/30 06:51:52;;;;;;;21.65;11.82;;;14.10;99.90;;;;;;5114943;28;20073;-59
2021/05/30 06:54:19;;;;;;;18.95;11.82;;;14.40;99.90;;;;;;5114818;28;20123;-59
2021/05/30 06:56:45;;;;;;;17.67;11.40;;;14.70;99.90;;;;;;5114864;28;20051;-60
2021/05/30 06:59:11;;;;;;;20.73;12.52;;;14.90;99.90;;;;;;5114936;28;20126;-59
2021/05/30 07:01:37;;;;;;;19.30;10.60;;;15.10;99.90;;;;;;5114652;28;20130;-59
2021/05/30 07:04:03;;;;;;;21.83;11.75;;;15.40;99.90;;;;;;5114719;28;20044;-59
2021/05/30 07:06:29;;;;;;;21.23;12.00;;;15.60;99.90;;;;;;5114579;28;20040;-59
2021/05/30 07:08:59;;;;;;;13.30;10.15;;;15.60;99.90;;;;;;5114530;28;20043;-59
2021/05/30 07:11:25;;;;;;;19.33;11.13;;;15.80;99.90;;;;;;5114580;28;20059;-59
2021/05/30 07:13:51;;;;;;;18.67;11.02;;;15.90;99.90;;;;;;5114526;28;20093;-59
2021/05/30 07:16:16;;;;;;;17.50;9.63;;;16.20;99.90;;;;;;5114439;28;20035;-59
2021/05/30 07:18:42;;;;;;;18.77;10.02;;;16.10;99.90;;;;;;5114271;28;20389;-59
2021/05/30 07:21:08;;;;;;;17.02;10.35;;;16.30;99.90;;;;;;5114237;28;20039;-59
2021/05/30 07:23:36;;;;;;;18.38;11.10;;;16.40;99.90;;;;;;5114158;28;20044;-59
2021/05/30 07:26:02;;;;;;;16.02;10.38;;;16.60;99.90;;;;;;5114327;28;20096;-60
2021/05/30 07:28:28;;;;;;;20.63;11.27;;;16.60;99.90;;;;;;5114176;28;20047;-59
2021/05/30 07:30:56;;;;;;;16.63;10.95;;;16.80;99.90;;;;;;5113915;28;20477;-59
2021/05/30 07:33:22;;;;;;;20.15;10.98;;;17.00;99.90;;;;;;5114099;28;20040;-59
2021/05/30 07:35:48;;;;;;;20.98;10.80;;;17.00;99.90;;;;;;5114359;28;20036;-59
2021/05/30 07:38:15;;;;;;;19.55;10.43;;;17.10;99.90;;;;;;5114110;28;20036;-60
2021/05/30 07:40:41;;;;;;;17.90;10.07;;;17.20;99.90;;;;;;5114079;28;20047;-60
2021/05/30 07:43:07;;;;;;;18.80;10.40;;;17.00;99.90;;;;;;5114225;28;20047;-59
2021/05/30 07:45:34;;;;;;;15.90;9.63;;;17.40;99.90;;;;;;5113796;28;20123;-59
2021/05/30 07:48:01;;;;;;;14.13;8.98;;;17.50;99.90;;;;;;5113924;28;20447;-60
2021/05/30 07:50:26;;;;;;;16.13;9.23;;;17.80;99.90;;;;;;5113909;28;20044;-59
2021/05/30 07:52:53;;;;;;;17.35;9.50;;;18.00;99.90;;;;;;5113790;28;20484;-59
2021/05/30 07:55:19;;;;;;;17.85;9.30;;;18.10;99.90;;;;;;5113926;28;20068;-59
2021/05/30 07:57:46;;;;;;;17.60;8.88;;;18.30;99.90;;;;;;5113675;28;20514;-59
2021/05/30 08:00:16;;;;;;;13.65;8.15;;;18.30;99.90;;;;;;5112415;28;20035;-59
2021/05/30 08:02:43;;;;;;;13.90;7.97;;;18.30;99.90;;;;;;5113636;28;20085;-59
2021/05/30 08:05:10;;;;;;;16.92;8.23;;;18.40;99.90;;;;;;5113597;28;20047;-60
2021/05/30 08:07:37;;;;;;;17.17;8.50;;;18.40;99.90;;;;;;5113936;28;20096;-60
2021/05/30 08:10:07;;;;;;;15.45;8.20;;;18.70;99.90;;;;;;5113718;28;20799;-59
2021/05/30 08:12:34;;;;;;;19.75;8.48;;;18.70;99.90;;;;;;5113346;28;20040;-59
2021/05/30 08:15:00;;;;;;;12.35;7.40;;;18.70;99.90;;;;;;5113252;28;20054;-60
2021/05/30 08:17:28;;;;;;;12.43;7.53;;;18.90;99.90;;;;;;5113323;28;20092;-59
2021/05/30 08:20:13;;;;;;;15.30;7.65;;;18.70;99.90;;;;;;5113604;28;20152;-60
2021/05/30 08:22:42;;;;;;;16.02;7.97;;;19.00;99.90;;;;;;5113449;28;20047;-60
2021/05/30 08:25:09;;;;;;;14.73;7.85;;;18.70;99.90;;;;;;5112991;28;20052;-60
2021/05/30 08:27:34;;;;;;;12.52;7.30;;;19.10;99.90;;;;;;5113061;28;20051;-59
2021/05/30 08:30:01;;;;;;;14.02;7.05;;;18.90;99.90;;;;;;5112949;28;20769;-60
2021/05/30 08:32:30;;;;;;;13.93;7.70;;;19.40;99.90;;;;;;5113165;28;20044;-59
2021/05/30 08:34:56;;;;;;;13.63;7.45;;;19.50;99.90;;;;;;5111676;28;20043;-59
2021/05/30 08:37:22;;;;;;;15.73;7.38;;;19.80;99.90;;;;;;5113044;28;20046;-59
2021/05/30 08:39:51;;;;;;;13.98;7.10;;;20.00;99.90;;;;;;5113088;28;20077;-60
2021/05/30 08:42:21;;;;;;;17.40;6.97;;;20.30;99.90;;;;;;5112667;28;20039;-60
2021/05/30 08:44:52;;;;;;;12.43;6.95;;;20.50;99.90;;;;;;5112497;28;20050;-59
2021/05/30 08:47:22;;;;;;;14.05;7.10;;;20.60;99.90;;;;;;5112835;28;20047;-59
2021/05/30 08:49:48;;;;;;;10.73;6.68;;;20.50;99.90;;;;;;5112558;28;20037;-59
2021/05/30 08:52:15;;;;;;;13.68;6.80;;;20.80;99.90;;;;;;5112978;28;20044;-60
2021/05/30 08:54:41;;;;;;;14.35;6.30;;;20.80;99.90;;;;;;5112638;28;20043;-60
2021/05/30 08:57:07;;;;;;;12.27;6.05;;;20.70;99.90;;;;;;5112420;28;20122;-60
2021/05/30 08:59:35;;;;;;;17.58;7.00;;;20.70;99.90;;;;;;5112301;28;20487;-60
2021/05/30 09:02:13;;;;;;;12.95;5.70;;;20.50;99.90;;;;;;5112613;28;20066;-59
2021/05/30 09:04:43;;;;;;;16.30;5.38;;;20.90;99.90;;;;;;5112707;28;20461;-60
2021/05/30 09:07:09;;;;;;;14.30;6.35;;;21.00;99.90;;;;;;5112348;28;20499;-60
2021/05/30 09:09:40;;;;;;;10.23;6.15;;;21.10;99.90;;;;;;5112028;28;20048;-60
2021/05/30 09:12:11;;;;;;;16.35;6.35;;;20.90;99.90;;;;;;5111416;28;20044;-61
2021/05/30 09:14:45;;;;;;;15.68;6.28;;;21.10;99.90;;;;;;5112419;28;20060;-60
2021/05/30 09:17:11;;;;;;;12.45;5.95;;;21.40;99.90;;;;;;5112292;28;20093;-61
2021/05/30 09:19:44;;;;;;;12.30;6.07;;;21.50;99.90;;;;;;5112165;28;20046;-61
2021/05/30 09:22:33;;;;;;;11.30;5.20;;;21.30;99.90;;;;;;5112324;28;20039;-58
2021/05/30 09:25:05;;;;;;;9.93;4.85;;;22.70;99.90;;;;;;5108932;28;20424;-59
2021/05/30 09:27:33;;;;;;;8.77;5.10;;;24.30;98.80;;;;;;5112155;28;20070;-59
2021/05/30 09:30:17;;;;;;;12.23;5.20;;;24.60;97.70;;;;;;5112162;28;20405;-59
2021/05/30 09:32:53;;;;;;;12.32;4.97;;;25.50;94.80;;;;;;5112199;28;20051;-60
2021/05/30 09:35:22;;;;;;;10.65;4.45;;;26.30;93.00;;;;;;5112025;28;20548;-60
2021/05/30 09:38:07;;;;;;;47.65;6.30;;;27.00;92.70;;;;;;5112119;28;20039;-60
2021/05/30 09:40:50;;;;;;;36.35;6.38;;;27.70;91.00;;;;;;5112066;28;20039;-60
2021/05/30 09:43:18;;;;;;;9.98;4.45;;;28.00;89.70;;;;;;5111965;28;20047;-60
2021/05/30 09:46:09;;;;;;;13.45;4.43;;;28.50;82.50;;;;;;5112114;28;20048;-60
2021/05/30 09:48:57;;;;;;;18.38;5.15;;;28.50;80.80;;;;;;5112015;28;20035;-60
2021/05/30 09:51:33;;;;;;;17.70;4.90;;;27.90;82.00;;;;;;5112180;28;20044;-60
2021/05/30 09:54:14;;;;;;;9.98;4.30;;;27.90;82.50;;;;;;5112236;28;20043;-60
2021/05/30 09:56:53;;;;;;;10.18;4.03;;;28.70;78.60;;;;;;5111982;28;20040;-59
2021/05/30 09:59:21;;;;;;;9.00;4.25;;;28.70;77.20;;;;;;5111893;28;20051;-60
2021/05/30 10:01:58;;;;;;;9.60;4.30;;;28.50;78.90;;;;;;5111737;28;20063;-61
2021/05/30 10:04:28;;;;;;;12.57;4.32;;;28.20;77.20;;;;;;5111770;28;20078;-60
2021/05/30 10:06:56;;;;;;;10.18;4.53;;;28.40;77.20;;;;;;5094269;28;20417;-60
2021/05/30 10:09:23;;;;;;;8.40;3.97;;;28.50;75.60;;;;;;5092493;28;20040;-60
2021/05/30 10:11:49;;;;;;;9.57;4.20;;;29.00;73.90;;;;;;5091246;28;20339;-61
2021/05/30 10:14:15;;;;;;;9.57;3.90;;;29.00;76.30;;;;;;5090641;28;20447;-60
2021/05/30 10:16:41;;;;;;;8.50;4.57;;;29.30;75.70;;;;;;5090737;28;20436;-61
2021/05/30 10:19:17;;;;;;;10.70;4.72;;;29.20;74.00;;;;;;5090091;28;20063;-61
2021/05/30 10:21:53;;;;;;;9.60;4.70;;;29.40;71.60;;;;;;5090688;28;20428;-61
2021/05/30 10:24:21;;;;;;;7.20;3.08;;;29.80;69.80;;;;;;5092880;28;20048;-60
2021/05/30 10:27:15;;;;;;;6.88;3.65;;;29.20;74.00;;;;;;5092955;28;20068;-61
2021/05/30 10:29:41;;;;;;;9.93;3.78;;;29.70;71.00;;;;;;5080294;28;20040;-60
2021/05/30 10:32:18;;;;;;;8.07;3.63;;;30.10;71.30;;;;;;5090018;28;20490;-62
2021/05/30 10:35:09;;;;;;;13.48;4.70;;;30.10;69.10;;;;;;5094112;28;20420;-61
2021/05/30 10:37:49;;;;;;;8.00;3.67;;;30.40;69.40;;;;;;5092887;28;20071;-60
2021/05/30 10:40:20;;;;;;;10.60;3.70;;;30.40;69.40;;;;;;5094762;28;20052;-61
2021/05/30 10:43:08;;;;;;;8.90;3.55;;;30.50;68.90;;;;;;5094705;28;20047;-61
2021/05/30 10:45:34;;;;;;;6.68;3.17;;;30.40;69.10;;;;;;5094227;28;20512;-61
2021/05/30 10:48:03;;;;;;;9.10;3.63;;;30.80;68.30;;;;;;5094773;28;20044;-62
2021/05/30 10:50:40;;;;;;;9.18;3.47;;;30.80;65.80;;;;;;5094333;28;20089;-62
2021/05/30 10:53:38;;;;;;;8.10;3.30;;;30.80;65.20;;;;;;5094414;28;20040;-61
2021/05/30 10:56:15;;;;;;;7.82;3.60;;;31.00;64.40;;;;;;5094689;28;20043;-61
2021/05/30 10:59:05;;;;;;;6.15;3.38;;;31.40;64.00;;;;;;5096972;28;20044;-61
2021/05/30 11:01:39;;;;;;;9.07;3.25;;;31.30;64.20;;;;;;5094501;28;20055;-61
2021/05/30 11:04:23;;;;;;;9.40;3.60;;;30.90;66.40;;;;;;5094219;28;20043;-61
2021/05/30 11:06:49;;;;;;;9.02;3.70;;;30.90;63.30;;;;;;5094297;28;20036;-61
2021/05/30 11:09:16;;;;;;;8.00;3.95;;;31.10;64.60;;;;;;5094258;28;20040;-61
2021/05/30 11:11:42;;;;;;;9.93;3.22;;;30.80;64.40;;;;;;5094326;28;20074;-61
2021/05/30 11:14:10;;;;;;;6.28;3.10;;;30.40;66.40;;;;;;5094123;28;20039;-61
2021/05/30 11:16:43;;;;;;;7.57;3.45;;;30.30;65.80;;;;;;5094106;28;20131;-61
2021/05/30 11:19:10;;;;;;;7.65;2.97;;;30.50;64.40;;;;;;5094396;28;20177;-61
2021/05/30 11:21:44;;;;;;;9.60;3.88;;;30.80;63.00;;;;;;5094284;28;20072;-61
2021/05/30 11:24:13;;;;;;;7.50;3.33;;;30.80;64.70;;;;;;5094203;28;20048;-61
2021/05/30 11:26:39;;;;;;;8.95;3.50;;;30.80;64.90;;;;;;5094020;28;20067;-61
2021/05/30 11:29:06;;;;;;;9.30;3.58;;;30.50;64.80;;;;;;5096391;28;20466;-61
2021/05/30 11:31:33;;;;;;;8.85;4.32;;;30.30;65.40;;;;;;5100854;28;20052;-61
2021/05/30 11:34:06;;;;;;;8.48;3.33;;;30.60;65.90;;;;;;5091951;28;20058;-60
2021/05/30 11:36:33;;;;;;;8.27;3.33;;;30.50;65.30;;;;;;5079431;28;20059;-60
2021/05/30 11:39:11;;;;;;;8.63;3.35;;;29.80;66.50;;;;;;5093423;28;20043;-60
2021/05/30 11:41:49;;;;;;;7.00;3.20;;;30.20;65.30;;;;;;5092557;28;20461;-61
2021/05/30 11:44:23;;;;;;;8.57;3.88;;;30.20;64.70;;;;;;5113694;28;20234;-61
2021/05/30 11:46:53;;;;;;;10.32;4.13;;;29.50;64.60;;;;;;5114201;28;20047;-60
2021/05/30 11:49:34;;;;;;;11.07;4.18;;;29.90;65.60;;;;;;5113954;28;20050;-61
2021/05/30 11:52:07;;;;;;;9.65;4.20;;;29.30;67.10;;;;;;5093939;28;20044;-60
2021/05/30 11:54:49;;;;;;;11.02;4.35;;;29.40;65.20;;;;;;5093493;28;20385;-61
2021/05/30 11:57:20;;;;;;;10.30;4.40;;;28.90;68.80;;;;;;5093476;28;20044;-61
2021/05/30 12:00:00;;;;;;;7.00;3.97;;;28.80;69.60;;;;;;5093437;28;20040;-61
2021/05/30 12:02:27;;;;;;;11.20;3.83;;;28.90;69.80;;;;;;5107763;28;20044;-61
2021/05/30 12:04:58;;;;;;;10.60;4.60;;;28.60;70.50;;;;;;5113625;28;20093;-61
2021/05/30 12:07:26;;;;;;;11.25;3.97;;;28.50;70.70;;;;;;5113490;28;20076;-61
2021/05/30 12:09:58;;;;;;;11.35;4.45;;;29.00;70.90;;;;;;5113278;28;20093;-61
2021/05/30 12:12:27;;;;;;;9.23;4.30;;;28.60;70.60;;;;;;5113423;28;20067;-61
2021/05/30 12:14:53;;;;;;;12.10;4.10;;;28.70;69.40;;;;;;5113222;28;20073;-61
2021/05/30 12:17:19;;;;;;;11.73;4.75;;;28.40;69.00;;;;;;5113371;28;20035;-60
2021/05/30 12:19:46;;;;;;;10.93;5.03;;;28.30;70.10;;;;;;5113343;28;20043;-61
2021/05/30 12:22:23;;;;;;;9.93;4.38;;;28.20;71.40;;;;;;5113250;27;20066;-61
2021/05/30 12:24:49;;;;;;;10.93;4.25;;;28.10;72.90;;;;;;5113106;28;20047;-61
2021/05/30 12:27:16;;;;;;;8.45;4.20;;;27.70;69.70;;;;;;5113068;28;20055;-60
2021/05/30 12:29:49;;;;;;;8.75;3.92;;;27.30;73.90;;;;;;5112760;28;20048;-61
2021/05/30 12:32:20;;;;;;;9.32;4.63;;;27.30;74.40;;;;;;5112994;28;20043;-61
2021/05/30 12:34:46;;;;;;;11.50;5.00;;;27.10;75.70;;;;;;5112957;28;20044;-60
2021/05/30 12:37:13;;;;;;;10.95;5.38;;;26.70;75.20;;;;;;5112879;28;20492;-61
2021/05/30 12:39:39;;;;;;;11.57;5.30;;;26.50;77.30;;;;;;5112962;28;20039;-61
2021/05/30 12:42:19;;;;;;;7.78;4.68;;;26.30;75.00;;;;;;5112606;28;20266;-61